Time;durP1;ratioP1;P1;durP2;ratioP2;P2;SDS_P1;SDS_P2;PMS_P1;PMS_P2;Temp;Humidity;BMP_temperature;BMP_pressure;BME280_temperature;BME280_humidity;BME280_pressure;Samples;Min_cycle;Max_cycle;Signal;HPM_P1;HPM_P2
2024/03/01 00:00:12;;;;;;;18.80;12.63;;;;;;;-146.25;94.00;52603.41;2090468;28;36539;-65
2024/03/01 00:01:14;;;;;;;18.85;12.15;;;;;;;-146.25;93.85;52589.22;2090305;28;29720;-65
2024/03/01 00:02:16;;;;;;;19.75;12.55;;;;;;;-146.25;93.39;52579.06;2090115;28;33484;-65
2024/03/01 00:03:18;;;;;;;18.77;11.60;;;;;;;-146.25;92.62;52637.88;2090276;28;37061;-65
2024/03/01 00:04:23;;;;;;;18.52;12.07;;;;;;;-146.25;92.80;52548.66;2090631;28;31608;-65
2024/03/01 00:05:24;;;;;;;20.25;11.95;;;;;;;-146.25;93.26;52587.19;2090658;28;20164;-66
2024/03/01 00:06:26;;;;;;;17.60;11.90;;;;;;;-146.25;92.72;52579.06;2090569;28;35437;-66
2024/03/01 00:07:28;;;;;;;19.35;11.88;;;;;;;-146.25;92.42;52589.22;2090460;28;35287;-65
2024/03/01 00:08:30;;;;;;;18.60;12.05;;;;;;;-146.25;92.65;52568.94;2090823;28;20045;-65
2024/03/01 00:09:32;;;;;;;20.13;12.38;;;;;;;-146.25;92.74;52613.53;2090473;28;33125;-65
2024/03/01 00:10:34;;;;;;;16.50;11.63;;;;;;;-146.25;92.64;52597.31;2090115;28;35593;-66
2024/03/01 00:11:36;;;;;;;17.67;12.15;;;;;;;-146.25;93.02;52556.75;2090643;28;34222;-66
2024/03/01 00:12:38;;;;;;;18.50;12.10;;;;;;;-146.25;93.19;52593.25;2090759;28;30215;-65
2024/03/01 00:13:40;;;;;;;18.10;11.52;;;;;;;-146.25;92.93;52581.09;2090461;28;21656;-65
2024/03/01 00:14:42;;;;;;;18.65;12.00;;;;;;;-146.25;92.59;52587.19;2090363;28;33932;-65
2024/03/01 00:15:44;;;;;;;19.80;11.93;;;;;;;-146.25;92.67;52603.41;2090762;28;30029;-65
2024/03/01 00:16:45;;;;;;;17.83;12.13;;;;;;;-146.25;92.98;52591.25;2090133;28;30359;-66
2024/03/01 00:17:47;;;;;;;19.10;11.98;;;;;;;-146.25;92.86;52566.91;2090613;28;33445;-66
2024/03/01 00:18:49;;;;;;;20.75;12.73;;;;;;;-146.25;93.10;52564.88;2091113;28;20661;-66
2024/03/01 00:19:51;;;;;;;17.67;12.05;;;;;;;-146.25;92.85;52607.47;2090355;28;36654;-65
2024/03/01 00:20:53;;;;;;;17.42;11.80;;;;;;;-146.25;92.90;52619.63;2090203;28;35770;-65
2024/03/01 00:21:55;;;;;;;16.67;11.73;;;;;;;-146.25;92.87;52613.53;2090352;28;31408;-65
2024/03/01 00:22:56;;;;;;;18.70;11.98;;;;;;;-146.25;93.02;52615.56;2091039;28;37116;-65
2024/03/01 00:23:58;;;;;;;18.73;11.85;;;;;;;-146.25;92.67;52623.69;2089516;28;32952;-65
2024/03/01 00:25:00;;;;;;;17.60;11.02;;;;;;;-146.25;92.13;52583.13;2089351;28;34939;-65
2024/03/01 00:26:02;;;;;;;20.58;11.60;;;;;;;-146.25;92.46;52611.50;2090461;28;34991;-66
2024/03/01 00:27:03;;;;;;;19.80;12.43;;;;;;;-146.25;92.35;52611.50;2090793;28;20034;-66
2024/03/01 00:28:05;;;;;;;19.67;11.55;;;;;;;-146.25;93.18;52581.09;2089912;28;33969;-65
2024/03/01 00:29:07;;;;;;;17.02;11.55;;;;;;;-146.25;92.84;52601.38;2090454;28;34644;-66
2024/03/01 00:30:09;;;;;;;18.38;12.00;;;;;;;-146.25;92.79;52587.19;2088758;28;33819;-66
2024/03/01 00:31:11;;;;;;;20.02;11.85;;;;;;;-146.25;93.00;52633.81;2089613;28;20875;-66
2024/03/01 00:32:13;;;;;;;17.65;10.98;;;;;;;-146.25;92.46;52552.72;2089054;28;37224;-65
2024/03/01 00:33:15;;;;;;;17.42;11.65;;;;;;;-146.25;92.35;52573.00;2088628;28;32302;-66
2024/03/01 00:34:20;;;;;;;17.75;11.98;;;;;;;-146.25;91.85;52597.31;2089089;28;32721;-65
2024/03/01 00:35:22;;;;;;;17.20;11.77;;;;;;;-146.25;92.33;52591.25;2088990;28;22071;-65
2024/03/01 00:36:24;;;;;;;19.40;11.50;;;;;;;-146.25;92.57;52619.63;2088710;28;36284;-65
2024/03/01 00:37:28;;;;;;;17.98;11.13;;;;;;;-146.25;92.65;52570.97;2088531;28;36867;-65
2024/03/01 00:38:30;;;;;;;16.77;10.95;;;;;;;-146.25;92.79;52577.03;2088940;28;30205;-66
2024/03/01 00:39:32;;;;;;;17.38;11.43;;;;;;;-146.25;93.36;52562.84;2088497;28;34552;-66
2024/03/01 00:40:33;;;;;;;17.88;11.43;;;;;;;-146.25;93.45;52599.34;2088017;28;37503;-65
2024/03/01 00:41:36;;;;;;;18.00;10.57;;;;;;;-146.25;92.40;52597.31;2089235;28;20026;-65
2024/03/01 00:42:40;;;;;;;18.70;11.27;;;;;;;-146.25;93.07;52583.13;2088139;28;37345;-65
2024/03/01 00:43:42;;;;;;;16.65;11.32;;;;;;;-146.25;93.31;52648.00;2088275;28;34244;-66
2024/03/01 00:44:44;;;;;;;16.67;10.73;;;;;;;-146.25;92.93;52595.28;2088468;28;34144;-66
2024/03/01 00:45:46;;;;;;;18.55;11.40;;;;;;;-146.25;92.62;52609.50;2088237;28;37418;-66
2024/03/01 00:46:47;;;;;;;19.77;12.15;;;;;;;-146.25;92.31;52552.72;2089702;28;20049;-66
2024/03/01 00:47:50;;;;;;;20.52;11.85;;;;;;;-146.25;92.79;52573.00;2088297;28;36343;-66
2024/03/01 00:48:54;;;;;;;17.13;11.05;;;;;;;-146.25;92.94;52605.44;2089027;28;32998;-66
2024/03/01 00:49:56;;;;;;;18.08;11.15;;;;;;;-146.25;93.19;52599.34;2088533;28;34297;-66
2024/03/01 00:50:58;;;;;;;18.73;11.70;;;;;;;-146.25;93.54;52573.00;2089512;28;20072;-65
2024/03/01 00:51:59;;;;;;;19.17;11.57;;;;;;;-146.25;93.16;52607.47;2088858;28;30299;-65
2024/03/01 00:53:03;;;;;;;17.35;11.43;;;;;;;-146.25;92.89;52595.28;2088481;28;38518;-66
2024/03/01 00:54:05;;;;;;;18.17;11.25;;;;;;;-146.25;93.54;52573.00;2088032;28;31521;-65
2024/03/01 00:55:07;;;;;;;15.55;10.32;;;;;;;-146.25;93.08;52591.25;2088159;28;32335;-66
2024/03/01 00:56:11;;;;;;;17.13;11.43;;;;;;;-146.25;93.26;52573.00;2088434;28;37563;-66
2024/03/01 00:57:15;;;;;;;16.52;11.13;;;;;;;-146.25;93.08;52593.25;2088322;28;31981;-65
2024/03/01 00:58:18;;;;;;;16.73;10.52;;;;;;;-146.25;92.91;52566.91;2087380;28;36622;-65
2024/03/01 00:59:23;;;;;;;19.65;11.88;;;;;;;-146.25;93.90;52587.19;2088082;28;32875;-65
2024/03/01 01:00:28;;;;;;;18.60;11.80;;;;;;;-146.25;93.12;52599.34;2087985;28;34167;-65
2024/03/01 01:01:30;;;;;;;16.42;11.02;;;;;;;-146.25;93.95;52613.53;2087674;28;28884;-66
2024/03/01 01:02:32;;;;;;;17.77;11.32;;;;;;;-146.25;93.92;52591.25;2089107;28;31592;-65
2024/03/01 01:03:39;;;;;;;17.52;10.88;;;;;;;-146.25;93.39;52603.41;2088841;28;34962;-66
2024/03/01 01:04:41;;;;;;;16.38;11.23;;;;;;;-146.25;93.50;52548.66;2088613;28;36796;-66
2024/03/01 01:05:43;;;;;;;16.75;11.25;;;;;;;-146.25;93.12;52599.34;2088693;28;35988;-66
2024/03/01 01:06:44;;;;;;;18.15;11.30;;;;;;;-146.25;93.39;52581.09;2088732;28;31889;-66
2024/03/01 01:07:48;;;;;;;16.90;11.23;;;;;;;-146.25;93.69;52595.28;2096512;28;30027;-65
2024/03/01 01:08:50;;;;;;;18.98;11.32;;;;;;;-146.25;93.86;52562.84;2096444;28;20037;-66
2024/03/01 01:09:52;;;;;;;18.73;10.70;;;;;;;-146.25;94.33;52593.25;2088614;28;38036;-65
2024/03/01 01:10:54;;;;;;;18.02;11.45;;;;;;;-146.25;94.15;52621.66;2088662;28;29384;-65
2024/03/01 01:11:56;;;;;;;19.38;11.95;;;;;;;-146.25;94.00;52560.81;2089180;28;20227;-65
2024/03/01 01:12:58;;;;;;;19.48;11.73;;;;;;;-146.25;94.85;52605.44;2088756;28;36177;-65
2024/03/01 01:14:00;;;;;;;20.38;11.90;;;;;;;-146.25;94.53;52546.63;2088692;28;27062;-65
2024/03/01 01:15:02;;;;;;;19.38;11.82;;;;;;;-146.25;94.87;52601.38;2089167;28;20038;-65
2024/03/01 01:16:06;;;;;;;17.15;10.90;;;;;;;-146.25;95.28;52587.19;2088741;28;26966;-66
2024/03/01 01:17:08;;;;;;;21.92;11.77;;;;;;;-146.25;95.06;52615.56;2088954;28;20037;-65
2024/03/01 01:18:12;;;;;;;17.40;11.70;;;;;;;-146.25;94.92;52579.06;2088271;28;33658;-65
2024/03/01 01:19:14;;;;;;;16.85;11.60;;;;;;;-146.25;95.02;52613.53;2088493;28;31985;-65
2024/03/01 01:20:16;;;;;;;15.40;10.85;;;;;;;-146.25;96.33;52597.31;2088987;28;20949;-65
2024/03/01 01:21:18;;;;;;;16.42;10.80;;;;;;;-146.25;95.82;52607.47;2088934;28;21946;-65
2024/03/01 01:22:20;;;;;;;20.13;11.82;;;;;;;-146.25;96.76;52570.97;2088768;28;21542;-65
2024/03/01 01:23:21;;;;;;;19.30;11.13;;;;;;;-146.25;97.20;52601.38;2089369;28;20044;-66
2024/03/01 01:24:23;;;;;;;19.08;12.23;;;;;;;-146.25;97.40;52613.53;2089293;28;20052;-65
2024/03/01 01:25:25;;;;;;;16.77;11.50;;;;;;;-146.25;97.44;52591.25;2088956;28;23354;-65
2024/03/01 01:26:27;;;;;;;18.95;12.40;;;;;;;-146.25;96.92;52637.88;2089117;28;21154;-65
2024/03/01 01:27:31;;;;;;;18.05;10.70;;;;;;;-146.25;96.87;52603.41;2088830;28;20136;-65
2024/03/01 01:28:33;;;;;;;18.63;11.88;;;;;;;-146.25;98.19;52581.09;2088257;28;23150;-65
2024/03/01 01:29:35;;;;;;;17.98;11.68;;;;;;;-146.25;97.91;52589.22;2088054;28;21356;-65
2024/03/01 01:30:40;;;;;;;18.88;11.07;;;;;;;-146.25;98.26;52589.22;2088931;28;20046;-64
2024/03/01 01:31:41;;;;;;;21.05;11.85;;;;;;;-146.25;98.57;52621.66;2089035;28;21886;-65
2024/03/01 01:32:43;;;;;;;23.02;12.32;;;;;;;-146.25;98.64;52609.50;2088692;28;20944;-65
2024/03/01 01:33:46;;;;;;;18.98;11.95;;;;;;;-146.25;99.12;52575.00;2088555;28;22557;-65
2024/03/01 01:34:50;;;;;;;18.27;11.77;;;;;;;-146.25;99.21;52579.06;2088761;28;20123;-65
2024/03/01 01:35:52;;;;;;;23.30;13.38;;;;;;;-146.25;99.57;52583.13;2088857;28;20971;-65
2024/03/01 01:36:56;;;;;;;19.83;12.07;;;;;;;-146.25;99.70;52577.03;2087834;28;22471;-65
2024/03/01 01:38:00;;;;;;;17.92;11.88;;;;;;;-146.25;99.54;52595.28;2088177;28;20807;-65
2024/03/01 01:39:04;;;;;;;20.45;12.75;;;;;;;-146.25;99.85;52601.38;2088820;28;24909;-65
2024/03/01 01:40:11;;;;;;;20.60;12.82;;;;;;;-146.25;99.90;52583.13;2088505;28;20100;-65
2024/03/01 01:41:13;;;;;;;19.67;12.52;;;;;;;-146.25;100.00;52575.00;2088441;28;21958;-65
2024/03/01 01:42:15;;;;;;;20.00;12.23;;;;;;;-146.25;99.67;52623.69;2087157;28;20056;-65
2024/03/01 01:43:17;;;;;;;20.58;12.52;;;;;;;-146.25;100.00;52583.13;2088301;28;22433;-65
2024/03/01 01:44:19;;;;;;;18.20;12.50;;;;;;;-146.25;100.00;52575.00;2088825;28;23899;-65
2024/03/01 01:45:21;;;;;;;20.70;12.38;;;;;;;-146.25;100.00;52581.09;2089166;28;20134;-65
2024/03/01 01:46:25;;;;;;;17.70;12.10;;;;;;;-146.25;100.00;52615.56;2089415;28;23680;-65
2024/03/01 01:47:27;;;;;;;21.20;12.25;;;;;;;-146.25;100.00;52603.41;2088701;28;23602;-65
2024/03/01 01:48:29;;;;;;;20.98;12.52;;;;;;;-146.25;100.00;52613.53;2088171;28;20041;-65
2024/03/01 01:49:31;;;;;;;20.17;12.98;;;;;;;-146.25;100.00;52613.53;2088014;28;20152;-65
2024/03/01 01:50:34;;;;;;;21.58;13.38;;;;;;;-146.25;100.00;52579.06;2088196;28;21045;-65
2024/03/01 01:51:36;;;;;;;21.90;13.85;;;;;;;-146.25;100.00;52603.41;2088181;28;23153;-65
2024/03/01 01:52:38;;;;;;;22.10;13.23;;;;;;;-146.25;100.00;52575.00;2088540;28;20042;-64
2024/03/01 01:53:41;;;;;;;22.25;13.80;;;;;;;-146.25;100.00;52607.47;2088199;28;22259;-65
2024/03/01 01:54:46;;;;;;;23.58;13.35;;;;;;;-146.25;100.00;52621.66;2087983;28;21529;-65
2024/03/01 01:55:48;;;;;;;24.48;13.65;;;;;;;-146.25;100.00;52595.28;2088159;28;21115;-65
2024/03/01 01:56:53;;;;;;;21.50;13.73;;;;;;;-146.25;100.00;52599.34;2088088;28;23907;-65
2024/03/01 01:57:56;;;;;;;21.98;12.73;;;;;;;-146.25;100.00;52609.50;2087890;28;24564;-64
2024/03/01 01:58:58;;;;;;;20.98;13.60;;;;;;;-146.25;100.00;52568.94;2088874;28;20107;-64
2024/03/01 02:00:05;;;;;;;21.27;13.55;;;;;;;-146.25;100.00;52583.13;2088112;28;20081;-64
2024/03/01 02:01:15;;;;;;;19.10;13.02;;;;;;;-146.25;100.00;52615.56;2087879;28;20041;-65
2024/03/01 02:02:19;;;;;;;21.85;13.45;;;;;;;-146.25;100.00;52587.19;2088856;28;20037;-65
2024/03/01 02:03:22;;;;;;;21.92;14.23;;;;;;;-146.25;100.00;52556.75;2087559;28;21835;-64
2024/03/01 02:04:26;;;;;;;24.13;14.57;;;;;;;-146.25;100.00;52583.13;2088296;28;20088;-64
2024/03/01 02:05:28;;;;;;;22.55;13.18;;;;;;;-146.25;100.00;52560.81;2088094;28;20088;-65
2024/03/01 02:06:30;;;;;;;22.33;13.82;;;;;;;-146.25;100.00;52587.19;2088599;28;22291;-64
2024/03/01 02:07:36;;;;;;;21.95;13.57;;;;;;;-146.25;100.00;52562.84;2088911;28;20101;-65
2024/03/01 02:08:38;;;;;;;22.92;14.40;;;;;;;-146.25;100.00;52609.50;2087909;28;22968;-64
2024/03/01 02:09:41;;;;;;;21.73;13.88;;;;;;;-146.25;100.00;52583.13;2088272;28;20234;-65
2024/03/01 02:10:45;;;;;;;26.88;14.95;;;;;;;-146.25;100.00;52573.00;2088113;28;20033;-65
2024/03/01 02:11:47;;;;;;;24.60;15.32;;;;;;;-146.25;100.00;52603.41;2088226;28;20802;-65
2024/03/01 02:13:00;;;;;;;23.58;15.00;;;;;;;-146.25;100.00;52570.97;2088987;28;20042;-64
2024/03/01 02:14:05;;;;;;;21.60;13.77;;;;;;;-146.25;100.00;52577.03;2088181;28;20037;-65
2024/03/01 02:15:08;;;;;;;24.00;14.88;;;;;;;-146.25;100.00;52599.34;2087580;28;20193;-65
2024/03/01 02:16:10;;;;;;;23.77;14.23;;;;;;;-146.25;100.00;52603.41;2088065;28;20041;-66
2024/03/01 02:17:12;;;;;;;24.60;14.80;;;;;;;-146.25;100.00;52562.84;2088255;28;20750;-66
2024/03/01 02:18:14;;;;;;;23.33;15.07;;;;;;;-146.25;100.00;52554.75;2088684;28;20131;-66
2024/03/01 02:19:17;;;;;;;23.88;14.70;;;;;;;-146.25;100.00;52589.22;2088168;28;23004;-65
2024/03/01 02:20:21;;;;;;;24.02;14.73;;;;;;;-146.25;100.00;52566.91;2087692;28;25449;-66
2024/03/01 02:21:27;;;;;;;25.95;16.02;;;;;;;-146.25;100.00;52599.34;2088139;28;20037;-66
2024/03/01 02:22:29;;;;;;;24.35;14.43;;;;;;;-146.25;100.00;52591.25;2088143;28;20089;-66
2024/03/01 02:23:31;;;;;;;24.42;15.20;;;;;;;-146.25;100.00;52611.50;2087605;28;21130;-65
2024/03/01 02:24:33;;;;;;;24.58;15.00;;;;;;;-146.25;100.00;52648.00;2088587;28;23507;-65
2024/03/01 02:25:35;;;;;;;24.02;15.18;;;;;;;-146.25;100.00;52564.88;2088606;28;20300;-66
2024/03/01 02:26:37;;;;;;;24.48;15.27;;;;;;;-146.25;100.00;52601.38;2088732;28;22352;-65
2024/03/01 02:27:39;;;;;;;24.83;15.32;;;;;;;-146.25;100.00;52581.09;2088505;28;21329;-66
2024/03/01 02:28:46;;;;;;;26.45;15.65;;;;;;;-146.25;100.00;52625.72;2088612;28;20041;-65
2024/03/01 02:29:50;;;;;;;24.77;15.52;;;;;;;-146.25;100.00;52568.94;2088010;28;32174;-66
2024/03/01 02:30:52;;;;;;;27.02;15.45;;;;;;;-146.25;100.00;52593.25;2088794;28;21049;-66
2024/03/01 02:31:55;;;;;;;24.92;15.63;;;;;;;-146.25;100.00;52591.25;2088499;28;35469;-66
2024/03/01 02:32:57;;;;;;;24.80;15.65;;;;;;;-146.25;100.00;52599.34;2087608;28;35809;-66
2024/03/01 02:33:58;;;;;;;23.63;14.90;;;;;;;-146.25;100.00;52573.00;2088280;28;34228;-66
2024/03/01 02:35:00;;;;;;;25.60;15.85;;;;;;;-146.25;100.00;52579.06;2087925;28;35396;-66
2024/03/01 02:36:06;;;;;;;26.75;15.82;;;;;;;-146.25;100.00;52583.13;2088473;28;20045;-66
2024/03/01 02:37:10;;;;;;;25.02;15.60;;;;;;;-146.25;100.00;52603.41;2088153;28;33719;-66
2024/03/01 02:38:12;;;;;;;25.88;15.80;;;;;;;-146.25;100.00;52611.50;2088085;28;33921;-65
2024/03/01 02:39:17;;;;;;;24.67;15.30;;;;;;;-146.25;100.00;52597.31;2088122;28;33639;-66
2024/03/01 02:40:21;;;;;;;25.38;16.17;;;;;;;-146.25;100.00;52564.88;2087948;28;31814;-66
2024/03/01 02:41:22;;;;;;;26.10;16.17;;;;;;;-146.25;100.00;52579.06;2087860;28;35529;-66
2024/03/01 02:42:26;;;;;;;25.98;16.25;;;;;;;-146.25;100.00;52589.22;2088758;28;20046;-66
2024/03/01 02:43:28;;;;;;;24.02;15.52;;;;;;;-146.25;100.00;52581.09;2087848;28;35082;-66
2024/03/01 02:44:30;;;;;;;26.02;15.52;;;;;;;-146.25;100.00;52593.25;2087812;28;33737;-65
2024/03/01 02:45:37;;;;;;;25.20;14.82;;;;;;;-146.25;100.00;52617.59;2088262;28;32491;-66
2024/03/01 02:46:39;;;;;;;24.33;14.93;;;;;;;-146.25;100.00;52603.41;2089264;28;20892;-65
2024/03/01 02:47:41;;;;;;;26.45;16.90;;;;;;;-146.25;100.00;52589.22;2088103;28;30973;-66
2024/03/01 02:48:43;;;;;;;24.30;15.82;;;;;;;-146.25;100.00;52585.16;2087960;28;32704;-66
2024/03/01 02:49:44;;;;;;;23.55;15.10;;;;;;;-146.25;100.00;52568.94;2088059;28;32806;-66
2024/03/01 02:50:46;;;;;;;25.60;15.55;;;;;;;-146.25;100.00;52568.94;2087699;28;32590;-66
2024/03/01 02:51:48;;;;;;;25.88;15.82;;;;;;;-146.25;100.00;52589.22;2087934;28;34512;-66
2024/03/01 02:52:50;;;;;;;22.85;15.45;;;;;;;-146.25;100.00;52579.06;2087935;28;30600;-66
2024/03/01 02:53:52;;;;;;;28.15;15.80;;;;;;;-146.25;100.00;52595.28;2087964;28;35216;-66
2024/03/01 02:54:54;;;;;;;26.00;15.90;;;;;;;-146.25;100.00;52623.69;2088348;28;20152;-66
2024/03/01 02:55:56;;;;;;;25.67;16.50;;;;;;;-146.25;100.00;52603.41;2088376;28;20922;-66
2024/03/01 02:56:58;;;;;;;24.73;15.65;;;;;;;-146.25;100.00;52575.00;2088046;28;36563;-66
2024/03/01 02:58:01;;;;;;;29.05;16.55;;;;;;;-146.25;100.00;52611.50;2088818;28;20926;-66
2024/03/01 02:59:05;;;;;;;23.80;14.95;;;;;;;-146.25;100.00;52593.25;2088090;28;33365;-66
2024/03/01 03:00:10;;;;;;;24.52;15.27;;;;;;;-146.25;100.00;52595.28;2087607;28;36276;-66
2024/03/01 03:01:13;;;;;;;28.27;16.20;;;;;;;-146.25;100.00;52583.13;2088071;28;34570;-66
2024/03/01 03:02:14;;;;;;;25.30;15.60;;;;;;;-146.25;100.00;52560.81;2087888;28;33268;-67
2024/03/01 03:03:17;;;;;;;25.58;15.30;;;;;;;-146.25;100.00;52595.28;2088439;28;20997;-66
2024/03/01 03:04:18;;;;;;;24.77;15.68;;;;;;;-146.25;100.00;52564.88;2087511;28;36168;-65
2024/03/01 03:05:21;;;;;;;28.60;16.25;;;;;;;-146.25;100.00;52591.25;2087472;28;36923;-66
2024/03/01 03:06:22;;;;;;;24.38;15.85;;;;;;;-146.25;100.00;52556.75;2088392;28;20046;-66
2024/03/01 03:07:25;;;;;;;26.42;16.80;;;;;;;-146.25;100.00;52593.25;2087534;28;35837;-66
2024/03/01 03:08:26;;;;;;;25.38;16.42;;;;;;;-146.25;100.00;52562.84;2087912;28;36345;-66
2024/03/01 03:09:31;;;;;;;27.13;16.70;;;;;;;-146.25;100.00;52607.47;2088493;28;20045;-66
2024/03/01 03:10:35;;;;;;;27.05;16.02;;;;;;;-146.25;100.00;52577.03;2087706;28;37645;-66
2024/03/01 03:11:37;;;;;;;24.83;15.73;;;;;;;-146.25;100.00;52601.38;2087923;28;31217;-66
2024/03/01 03:12:39;;;;;;;28.00;17.15;;;;;;;-146.25;100.00;52583.13;2088500;28;20037;-66
2024/03/01 03:13:40;;;;;;;26.88;16.42;;;;;;;-146.25;100.00;52623.69;2087822;28;32723;-66
2024/03/01 03:14:42;;;;;;;23.13;14.82;;;;;;;-146.25;100.00;52573.00;2088035;28;36117;-65
2024/03/01 03:15:44;;;;;;;24.77;15.95;;;;;;;-146.25;100.00;52607.47;2087659;28;36105;-66
2024/03/01 03:16:46;;;;;;;28.40;16.45;;;;;;;-146.25;100.00;52587.19;2088044;28;34482;-65
2024/03/01 03:17:48;;;;;;;23.15;15.68;;;;;;;-146.25;100.00;52603.41;2087845;28;34111;-65
2024/03/01 03:18:50;;;;;;;27.05;17.02;;;;;;;-146.25;100.00;52595.28;2087953;28;20937;-66
2024/03/01 03:19:54;;;;;;;25.92;16.70;;;;;;;-146.25;100.00;52615.56;2088529;28;20053;-66
2024/03/01 03:20:56;;;;;;;24.73;16.33;;;;;;;-146.25;100.00;52573.00;2087013;28;33372;-66
2024/03/01 03:22:06;;;;;;;27.48;17.38;;;;;;;-146.25;100.00;52575.00;2087099;28;34767;-66
2024/03/01 03:23:08;;;;;;;26.90;17.23;;;;;;;-146.25;100.00;52597.31;2087670;28;35435;-66
2024/03/01 03:24:11;;;;;;;28.88;16.95;;;;;;;-146.25;100.00;52601.38;2087445;28;37959;-66
2024/03/01 03:25:13;;;;;;;28.17;17.15;;;;;;;-146.25;100.00;52575.00;2087949;28;32739;-66
2024/03/01 03:26:15;;;;;;;27.70;17.35;;;;;;;-146.25;100.00;52585.16;2087422;28;38080;-66
2024/03/01 03:27:17;;;;;;;28.02;17.48;;;;;;;-146.25;100.00;52568.94;2087477;28;31550;-66
2024/03/01 03:28:21;;;;;;;29.50;17.60;;;;;;;-146.25;100.00;52615.56;2087545;28;32105;-65
2024/03/01 03:29:26;;;;;;;28.27;17.38;;;;;;;-146.25;100.00;52554.75;2087457;28;36881;-66
2024/03/01 03:30:28;;;;;;;29.02;17.48;;;;;;;-146.25;100.00;52603.41;2088785;28;20122;-66
2024/03/01 03:31:31;;;;;;;28.15;17.85;;;;;;;-146.25;100.00;52579.06;2088519;28;20088;-66
2024/03/01 03:32:34;;;;;;;27.75;16.65;;;;;;;-146.25;100.00;52585.16;2088549;28;20138;-66
2024/03/01 03:33:35;;;;;;;26.83;17.75;;;;;;;-146.25;100.00;52587.19;2087306;28;33424;-66
2024/03/01 03:34:37;;;;;;;26.42;17.05;;;;;;;-146.25;100.00;52558.78;2087908;28;35783;-65
2024/03/01 03:35:39;;;;;;;29.08;18.00;;;;;;;-146.25;100.00;52587.19;2088405;28;20033;-65
2024/03/01 03:36:41;;;;;;;28.55;17.65;;;;;;;-146.25;100.00;52552.72;2087682;28;31413;-66
2024/03/01 03:37:42;;;;;;;28.70;17.75;;;;;;;-146.25;100.00;52562.84;2087895;28;35199;-66
2024/03/01 03:38:44;;;;;;;29.75;16.73;;;;;;;-146.25;100.00;52573.00;2088871;28;20026;-66
2024/03/01 03:39:46;;;;;;;31.70;18.83;;;;;;;-146.25;100.00;52595.28;2087408;28;34388;-66
2024/03/01 03:40:48;;;;;;;30.45;18.75;;;;;;;-146.25;100.00;52595.28;2087927;28;34743;-66
2024/03/01 03:41:49;;;;;;;32.58;18.55;;;;;;;-146.25;100.00;52595.28;2087804;28;35689;-66
2024/03/01 03:42:51;;;;;;;31.30;18.85;;;;;;;-146.25;100.00;52595.28;2087302;28;36070;-65
2024/03/01 03:43:53;;;;;;;30.95;19.27;;;;;;;-146.25;100.00;52552.72;2087952;28;31058;-66
2024/03/01 03:44:55;;;;;;;29.77;18.67;;;;;;;-146.25;100.00;52570.97;2087646;28;36172;-65
2024/03/01 03:45:59;;;;;;;29.92;18.05;;;;;;;-146.25;100.00;52564.88;2088559;28;20568;-66
2024/03/01 03:47:01;;;;;;;31.55;18.60;;;;;;;-146.25;100.00;52542.56;2088156;28;20042;-66
2024/03/01 03:48:05;;;;;;;28.63;18.02;;;;;;;-146.25;100.00;52575.00;2087581;28;32779;-66
2024/03/01 03:49:11;;;;;;;31.77;18.60;;;;;;;-146.25;100.00;52577.03;2087236;28;31113;-66
2024/03/01 03:50:13;;;;;;;32.22;19.17;;;;;;;-146.25;100.00;52595.28;2087952;28;20096;-66
2024/03/01 03:51:29;;;;;;;32.50;19.60;;;;;;;-146.25;100.00;52601.38;2087610;28;36656;-66
2024/03/01 03:52:31;;;;;;;31.45;19.10;;;;;;;-146.25;100.00;52558.78;2088273;28;28005;-66
2024/03/01 03:53:33;;;;;;;30.55;17.52;;;;;;;-146.25;100.00;52579.06;2088072;28;32019;-66
2024/03/01 03:54:38;;;;;;;29.55;18.42;;;;;;;-146.25;100.00;52558.78;2087730;28;32489;-66
2024/03/01 03:55:41;;;;;;;30.70;18.92;;;;;;;-146.25;100.00;52560.81;2087568;28;35322;-66
2024/03/01 03:56:45;;;;;;;32.53;19.63;;;;;;;-146.25;100.00;52570.97;2087531;28;36069;-65
2024/03/01 03:57:47;;;;;;;31.17;18.10;;;;;;;-146.25;100.00;52599.34;2087639;28;36192;-66
2024/03/01 03:58:51;;;;;;;32.45;20.50;;;;;;;-146.25;100.00;52579.06;2087677;28;35457;-66
2024/03/01 03:59:52;;;;;;;30.42;19.15;;;;;;;-146.25;100.00;52589.22;2087138;28;33178;-66
2024/03/01 04:00:55;;;;;;;31.95;19.85;;;;;;;-146.25;100.00;52599.34;2087342;28;36292;-66
2024/03/01 04:01:57;;;;;;;32.97;19.65;;;;;;;-146.25;100.00;52609.50;2087697;28;35796;-66
2024/03/01 04:02:59;;;;;;;32.28;19.95;;;;;;;-146.25;100.00;52587.19;2088013;28;22091;-64
2024/03/01 04:04:04;;;;;;;31.65;19.33;;;;;;;-146.25;100.00;52583.13;2087779;28;20037;-65
2024/03/01 04:05:06;;;;;;;31.58;19.60;;;;;;;-146.25;100.00;52579.06;2087827;28;20041;-65
2024/03/01 04:06:09;;;;;;;32.45;20.30;;;;;;;-146.25;100.00;52585.16;2089779;28;33157;-66
2024/03/01 04:07:10;;;;;;;36.45;20.73;;;;;;;-146.25;100.00;52564.88;2089182;28;34040;-66
2024/03/01 04:08:12;;;;;;;28.83;19.55;;;;;;;-146.25;100.00;52587.19;2089359;28;32078;-66
2024/03/01 04:09:15;;;;;;;33.05;21.13;;;;;;;-146.25;100.00;52583.13;2088912;28;35458;-66
2024/03/01 04:10:17;;;;;;;32.97;19.63;;;;;;;-146.25;100.00;52605.44;2089835;28;20914;-66
2024/03/01 04:11:20;;;;;;;33.78;20.45;;;;;;;-146.25;100.00;52599.34;2089050;28;35384;-66
2024/03/01 04:12:22;;;;;;;30.92;19.77;;;;;;;-146.25;100.00;52579.06;2088710;28;37209;-66
2024/03/01 04:13:25;;;;;;;32.63;20.15;;;;;;;-146.25;100.00;52601.38;2089533;28;20037;-66
2024/03/01 04:14:27;;;;;;;33.40;20.98;;;;;;;-146.25;100.00;52577.03;2086111;28;36414;-66
2024/03/01 04:15:29;;;;;;;32.28;21.27;;;;;;;-146.25;100.00;52568.94;2088869;28;20042;-66
2024/03/01 04:16:31;;;;;;;33.67;20.10;;;;;;;-146.25;100.00;52601.38;2088204;28;35100;-66
2024/03/01 04:17:33;;;;;;;35.80;20.30;;;;;;;-146.25;100.00;52542.56;2089254;28;30536;-66
2024/03/01 04:18:38;;;;;;;34.53;20.50;;;;;;;-146.25;100.00;52605.44;2088612;28;33156;-66
2024/03/01 04:19:40;;;;;;;34.53;21.85;;;;;;;-146.25;100.00;52589.22;2088296;28;34157;-66
2024/03/01 04:20:42;;;;;;;33.10;21.23;;;;;;;-146.25;100.00;52617.59;2088843;28;34619;-66
2024/03/01 04:21:45;;;;;;;31.67;19.80;;;;;;;-146.25;100.00;52575.00;2089494;28;20889;-66
2024/03/01 04:22:47;;;;;;;33.13;20.88;;;;;;;-146.25;100.00;52554.75;2089189;28;30328;-66
2024/03/01 04:23:49;;;;;;;33.03;20.23;;;;;;;-146.25;100.00;52587.19;2089902;28;20049;-65
2024/03/01 04:24:54;;;;;;;36.90;21.30;;;;;;;-146.25;100.00;52593.25;2089142;28;36229;-66
2024/03/01 04:25:56;;;;;;;34.88;20.25;;;;;;;-146.25;100.00;52591.25;2089185;28;21930;-66
2024/03/01 04:26:57;;;;;;;36.47;21.02;;;;;;;-146.25;100.00;52603.41;2088755;28;32944;-66
2024/03/01 04:27:59;;;;;;;34.20;21.67;;;;;;;-146.25;100.00;52595.28;2088625;28;36191;-65
2024/03/01 04:29:03;;;;;;;34.30;21.50;;;;;;;-146.25;100.00;52546.63;2088997;28;28555;-66
2024/03/01 04:30:09;;;;;;;35.97;21.67;;;;;;;-146.25;100.00;52579.06;2088610;28;35085;-66
2024/03/01 04:31:14;;;;;;;34.90;21.05;;;;;;;-146.25;100.00;52546.63;2088488;28;38711;-66
2024/03/01 04:32:17;;;;;;;34.80;21.30;;;;;;;-146.25;100.00;52577.03;2089035;28;28034;-66
2024/03/01 04:33:20;;;;;;;34.55;21.27;;;;;;;-146.25;100.00;52595.28;2088554;28;33344;-65
2024/03/01 04:34:22;;;;;;;33.75;20.50;;;;;;;-146.25;100.00;52577.03;2088530;28;38466;-66
2024/03/01 04:35:24;;;;;;;32.42;19.70;;;;;;;-146.25;100.00;52560.81;2088801;28;36605;-66
2024/03/01 04:36:26;;;;;;;34.95;21.05;;;;;;;-146.25;100.00;52593.25;2088723;28;32952;-66
2024/03/01 04:37:27;;;;;;;34.53;21.40;;;;;;;-146.25;100.00;52566.91;2088705;28;37309;-66
2024/03/01 04:38:32;;;;;;;34.22;20.85;;;;;;;-146.25;100.00;52558.78;2088573;28;31534;-66
2024/03/01 04:39:34;;;;;;;35.42;21.73;;;;;;;-146.25;100.00;52597.31;2088935;28;37359;-66